CheckWX is a tool to help pilots better visualize weather data.  It is not intended as a substitute for an official pre-flight weather briefing.

12:32:25 UTC

KSZY METAR
Robert Sibley Airport
Selmer, Tennessee, USA
Current

17 mins ago

KSZY 221215Z AUTO 04006KT 9SM OVC003 08/07 A3012 RMK A01
Observed
Feb-22 @ 12:15 UTC
Wind
  • 040° at 6 KTS
Visibility
9 SM
Flight Rules
LIFR
Cloud Levels
  • Overcast at 300' AGL
Temperature
C / 46°F
Dewpoint
C / 45°F
Humidity
93%
Altimeter
30.12" Hg
Pressure
1020.02 hPa
Previous

37 mins ago

KSZY 221155Z AUTO 07005G10KT 10SM OVC003 08/07 A3013 RMK A01 P0005
Observed
Feb-22 @ 11:55 UTC
Wind
  • 070° at 5 KTS
  • Gusting to KTS
Visibility
10 SM
Flight Rules
LIFR
Cloud Levels
  • Overcast at 300' AGL
Temperature
C / 46°F
Dewpoint
C / 45°F
Humidity
93%
Altimeter
30.13" Hg
Pressure
1020.32 hPa
Current Rain
0.05"
Previous

57 mins ago

KSZY 221135Z AUTO VRB06KT 6SM BR OVC003 08/07 A3012 RMK A01
Observed
Feb-22 @ 11:35 UTC
Wind
  • Variable at 6 KTS
Visibility
6 SM
Flight Rules
LIFR
Conditions
Mist
Cloud Levels
  • Overcast at 300' AGL
Temperature
C / 46°F
Dewpoint
C / 45°F
Humidity
93%
Altimeter
30.12" Hg
Pressure
1020.02 hPa